createdAt,value
2019-03-25T00:00:49.665Z,3.90
2019-03-25T00:03:19.762Z,4.33
2019-03-25T00:05:49.833Z,3.83
2019-03-25T00:08:19.976Z,3.77
2019-03-25T00:10:50.186Z,4.13
2019-03-25T00:13:20.462Z,3.80
2019-03-25T00:15:50.631Z,4.57
2019-03-25T00:18:20.793Z,3.60
2019-03-25T00:20:51.095Z,3.63
2019-03-25T00:23:21.404Z,3.53
2019-03-25T00:25:51.577Z,3.47
2019-03-25T00:28:21.745Z,3.93
2019-03-25T00:30:52.009Z,4.60
2019-03-25T00:33:22.146Z,3.90
2019-03-25T00:35:52.249Z,4.00
2019-03-25T00:38:22.421Z,4.47
2019-03-25T00:40:52.733Z,4.67
2019-03-25T00:43:22.966Z,3.83
2019-03-25T00:45:53.227Z,4.27
2019-03-25T00:48:23.327Z,4.57
2019-03-25T00:50:53.543Z,4.00
2019-03-25T00:53:23.737Z,4.77
2019-03-25T00:55:53.782Z,3.90
2019-03-25T00:58:24.020Z,4.47
2019-03-25T01:00:54.167Z,4.37
2019-03-25T01:03:24.308Z,3.70
2019-03-25T01:05:54.475Z,4.83
2019-03-25T01:08:24.579Z,3.80
2019-03-25T01:10:54.719Z,4.43
2019-03-25T01:13:24.951Z,4.70
2019-03-25T01:15:55.094Z,4.37
2019-03-25T01:18:25.261Z,3.93
2019-03-25T01:20:55.394Z,4.60
2019-03-25T01:23:25.503Z,4.27
2019-03-25T01:25:55.755Z,3.70
2019-03-25T01:28:25.785Z,4.07
2019-03-25T01:30:55.885Z,4.13
2019-03-25T01:33:26.070Z,4.00
2019-03-25T01:35:56.138Z,4.63
2019-03-25T01:38:26.289Z,4.10
2019-03-25T01:40:56.339Z,3.87
2019-03-25T01:43:26.614Z,3.73
2019-03-25T01:45:57.646Z,4.60
2019-03-25T01:48:27.736Z,4.10
2019-03-25T01:50:57.957Z,4.30
2019-03-25T01:53:28.088Z,4.27
2019-03-25T01:55:58.305Z,4.53
2019-03-25T01:58:28.571Z,4.53
2019-03-25T02:00:58.751Z,4.70
2019-03-25T02:03:28.947Z,4.67
2019-03-25T02:05:59.183Z,4.40
2019-03-25T02:08:29.322Z,4.20
2019-03-25T02:10:59.455Z,4.47
2019-03-25T02:13:29.557Z,4.80
2019-03-25T02:16:00.108Z,4.50
2019-03-25T02:18:30.192Z,4.53
2019-03-25T02:21:00.430Z,4.73
2019-03-25T02:23:30.669Z,4.90
2019-03-25T02:26:00.836Z,4.77
2019-03-25T02:28:31.023Z,4.60
2019-03-25T02:31:01.194Z,5.67
2019-03-25T02:33:31.563Z,5.00
2019-03-25T02:36:01.714Z,5.33
2019-03-25T02:38:31.846Z,5.47
2019-03-25T02:41:01.961Z,5.20
2019-03-25T02:43:32.083Z,5.70
2019-03-25T02:46:02.326Z,5.70
2019-03-25T02:48:32.524Z,5.63
2019-03-25T02:51:02.751Z,6.53
2019-03-25T02:53:32.955Z,6.40
2019-03-25T02:56:03.247Z,6.80
2019-03-25T02:58:33.426Z,6.83
2019-03-25T03:01:03.631Z,7.13
2019-03-25T03:03:33.901Z,7.10
2019-03-25T03:06:04.086Z,6.70
2019-03-25T03:08:34.305Z,6.57
2019-03-25T03:11:04.769Z,7.30
2019-03-25T03:13:34.942Z,6.63
2019-03-25T03:16:05.127Z,7.20
2019-03-25T03:18:35.288Z,5.70
2019-03-25T03:21:05.363Z,5.17
2019-03-25T03:23:35.475Z,5.13
2019-03-25T03:26:06.772Z,5.00
2019-03-25T03:28:36.749Z,4.27
2019-03-25T03:31:06.658Z,4.37
2019-03-25T03:33:36.684Z,4.07
2019-03-25T03:36:06.620Z,3.97
2019-03-25T03:38:36.604Z,3.63
2019-03-25T03:41:06.723Z,3.83
2019-03-25T03:43:36.714Z,3.93
2019-03-25T03:46:06.723Z,3.13
2019-03-25T03:48:36.683Z,2.87
2019-03-25T03:51:06.805Z,2.80
2019-03-25T03:53:37.145Z,2.40
2019-03-25T03:56:13.750Z,2.60
2019-03-25T03:58:39.536Z,2.50
2019-03-25T04:01:09.570Z,2.17
2019-03-25T04:03:39.611Z,2.30
2019-03-25T04:06:09.759Z,1.97
2019-03-25T04:08:39.771Z,1.80
2019-03-25T04:11:09.986Z,1.97
2019-03-25T04:13:40.177Z,1.60
2019-03-25T04:16:10.402Z,1.60
2019-03-25T04:18:40.531Z,1.77
2019-03-25T04:21:10.651Z,1.50
2019-03-25T04:23:40.719Z,1.37
2019-03-25T04:26:10.933Z,1.30
2019-03-25T04:28:41.140Z,1.30
2019-03-25T04:31:11.398Z,1.50
2019-03-25T04:33:41.543Z,1.50
2019-03-25T04:36:11.726Z,1.23
2019-03-25T04:38:41.853Z,1.10
2019-03-25T04:41:15.216Z,1.47
2019-03-25T04:43:45.445Z,1.33
2019-03-25T04:46:15.723Z,1.30
2019-03-25T04:48:46.957Z,1.43
2019-03-25T04:51:17.318Z,1.67
2019-03-25T04:53:47.456Z,1.53
2019-03-25T04:56:20.345Z,1.10
2019-03-25T04:58:50.482Z,1.60
2019-03-25T05:01:20.577Z,1.43
2019-03-25T05:03:50.643Z,1.47
2019-03-25T05:06:20.850Z,1.30
2019-03-25T05:08:51.042Z,1.40
2019-03-25T05:11:30.283Z,1.30
2019-03-25T05:13:53.162Z,1.07
2019-03-25T05:16:23.306Z,1.60
2019-03-25T05:18:53.525Z,1.20
2019-03-25T05:21:23.818Z,1.30
2019-03-25T05:23:53.977Z,1.20
2019-03-25T05:26:24.281Z,1.40
2019-03-25T05:28:54.448Z,1.60
2019-03-25T05:31:24.882Z,1.23
2019-03-25T05:33:55.084Z,1.70
2019-03-25T05:36:25.254Z,1.33
2019-03-25T05:38:55.470Z,1.10
2019-03-25T05:41:25.751Z,1.50
2019-03-25T05:43:55.999Z,1.13
2019-03-25T05:46:26.331Z,1.30
2019-03-25T05:48:56.437Z,1.50
2019-03-25T05:51:26.680Z,1.50
2019-03-25T05:53:56.696Z,1.77
2019-03-25T05:56:26.916Z,1.80
2019-03-25T05:58:59.453Z,1.90
2019-03-25T06:01:29.711Z,1.70
2019-03-25T06:03:59.972Z,1.53
2019-03-25T06:06:30.169Z,1.70
2019-03-25T06:09:00.412Z,1.70
2019-03-25T06:11:30.617Z,1.83
2019-03-25T06:14:00.811Z,1.70
2019-03-25T06:16:31.057Z,1.60
2019-03-25T06:19:01.132Z,1.73
2019-03-25T06:21:31.342Z,1.80
2019-03-25T06:24:01.518Z,2.10
2019-03-25T06:26:34.640Z,2.07
2019-03-25T06:29:04.798Z,2.20
2019-03-25T06:31:35.206Z,2.27
2019-03-25T06:34:05.402Z,2.70
2019-03-25T06:36:35.564Z,2.43
2019-03-25T06:39:06.982Z,2.37
2019-03-25T06:41:37.253Z,1.93
2019-03-25T06:44:07.497Z,3.33
2019-03-25T06:46:37.788Z,2.73
2019-03-25T06:49:11.193Z,3.07
2019-03-25T06:51:41.567Z,2.60
2019-03-25T06:54:13.840Z,2.67
2019-03-25T06:56:47.591Z,2.80
2019-03-25T06:59:21.121Z,2.67
2019-03-25T07:01:51.479Z,2.80
2019-03-25T07:04:21.658Z,2.87
2019-03-25T07:06:52.116Z,2.67
2019-03-25T07:09:22.782Z,3.13
2019-03-25T07:11:53.216Z,2.93
2019-03-25T07:14:23.767Z,2.60
2019-03-25T07:16:53.969Z,3.07
2019-03-25T07:19:24.327Z,2.97
2019-03-25T07:21:54.571Z,2.63
2019-03-25T07:24:24.821Z,2.80
2019-03-25T07:26:55.617Z,2.73
2019-03-25T07:29:25.780Z,2.73
2019-03-25T07:31:55.965Z,3.30
2019-03-25T07:34:26.344Z,3.23
2019-03-25T07:36:56.245Z,4.27
2019-03-25T07:39:26.189Z,2.80
2019-03-25T07:41:56.163Z,2.67
2019-03-25T07:44:26.054Z,2.97
2019-03-25T07:46:56.391Z,4.03
2019-03-25T07:49:26.309Z,2.17
2019-03-25T07:51:56.260Z,2.50
2019-03-25T07:54:26.268Z,1.80
2019-03-25T07:56:56.218Z,1.70
2019-03-25T07:59:26.115Z,1.87
2019-03-25T08:01:56.088Z,2.53
2019-03-25T08:04:28.351Z,2.53
2019-03-25T08:06:58.325Z,3.10
2019-03-25T08:09:28.164Z,3.30
2019-03-25T08:11:58.021Z,2.43
2019-03-25T08:14:27.982Z,1.97
2019-03-25T08:16:57.849Z,1.63
2019-03-25T08:19:27.732Z,1.73
2019-03-25T08:21:57.685Z,1.70
2019-03-25T08:24:27.605Z,1.70
2019-03-25T08:27:01.698Z,1.47
2019-03-25T08:29:31.962Z,1.80
2019-03-25T08:32:28.330Z,1.43
2019-03-25T08:37:58.205Z,1.73
2019-03-25T08:40:56.497Z,1.63
2019-03-25T08:43:32.389Z,2.00
2019-03-25T09:32:18.725Z,2.47
2019-03-25T09:34:51.611Z,2.43
2019-03-25T09:37:24.370Z,2.73
2019-03-25T09:39:54.779Z,2.90
2019-03-25T09:42:24.695Z,3.17
2019-03-25T09:44:54.711Z,2.73
2019-03-25T09:47:24.684Z,2.50
2019-03-25T09:49:54.640Z,1.77
2019-03-25T09:52:37.919Z,1.23
2019-03-25T09:54:57.719Z,1.87
2019-03-25T09:57:27.621Z,1.73
2019-03-25T09:59:57.524Z,1.77
2019-03-25T10:02:27.427Z,1.90
2019-03-25T10:04:57.409Z,2.23
2019-03-25T10:07:30.791Z,1.87
2019-03-25T10:10:00.848Z,2.30
2019-03-25T10:12:30.848Z,2.10
2019-03-25T10:15:00.851Z,2.90
2019-03-25T10:17:30.753Z,1.67
2019-03-25T10:20:00.724Z,1.80
2019-03-25T10:22:30.548Z,1.40
2019-03-25T10:25:00.416Z,1.70
2019-03-25T10:27:30.252Z,1.80
2019-03-25T10:30:00.337Z,1.60
2019-03-25T10:32:30.328Z,1.60
2019-03-25T10:35:00.428Z,1.83
2019-03-25T10:37:30.377Z,1.97
2019-03-25T10:40:00.406Z,1.70
2019-03-25T10:42:30.339Z,1.80
2019-03-25T10:45:00.370Z,1.90
2019-03-25T10:47:30.282Z,2.47
2019-03-25T10:50:00.280Z,1.83
2019-03-25T10:52:30.274Z,1.60
2019-03-25T10:55:00.442Z,1.63
2019-03-25T10:57:30.405Z,1.87
2019-03-25T11:00:00.381Z,2.37
2019-03-25T11:02:30.262Z,1.97
2019-03-25T11:05:00.203Z,2.43
2019-03-25T11:07:35.125Z,2.13
2019-03-25T11:10:06.324Z,1.67
2019-03-25T11:16:59.466Z,1.50
2019-03-25T11:19:32.623Z,2.10
2019-03-25T11:22:46.419Z,1.60
2019-03-25T11:25:16.543Z,0.67
2019-03-25T11:27:54.235Z,0.63
2019-03-25T11:30:47.274Z,1.10
2019-03-25T11:33:18.999Z,0.40
2019-03-25T11:35:51.559Z,0.73
2019-03-25T11:38:23.701Z,0.93
2019-03-25T11:40:53.673Z,0.77
2019-03-25T11:43:24.148Z,0.93
2019-03-25T11:45:55.729Z,1.07
2019-03-25T11:48:26.807Z,1.23
2019-03-25T11:50:59.424Z,1.40
2019-03-25T11:53:30.925Z,1.10
2019-03-25T11:56:02.977Z,1.30
2019-03-25T11:58:35.181Z,1.30
2019-03-25T12:01:05.201Z,1.43
2019-03-25T12:03:37.021Z,1.73
2019-03-25T12:06:07.938Z,1.70
2019-03-25T12:08:53.162Z,1.43
2019-03-25T12:11:23.789Z,1.87
2019-03-25T12:13:53.842Z,2.13
2019-03-25T12:16:23.699Z,1.97
2019-03-25T12:18:53.652Z,2.17
2019-03-25T12:21:23.558Z,2.20
2019-03-25T12:23:53.489Z,2.30
2019-03-25T12:26:23.360Z,2.50
2019-03-25T12:28:53.306Z,2.27
2019-03-25T12:31:23.150Z,2.03
2019-03-25T12:33:53.011Z,2.27
2019-03-25T12:36:23.007Z,2.40
2019-03-25T12:38:52.925Z,2.03
2019-03-25T12:41:22.791Z,2.40
2019-03-25T12:43:52.688Z,2.33
2019-03-25T12:46:22.527Z,2.10
2019-03-25T12:48:52.461Z,1.90
2019-03-25T12:51:22.325Z,2.10
2019-03-25T12:53:52.198Z,2.33
2019-03-25T12:56:22.099Z,1.50
2019-03-25T12:58:51.989Z,2.33
2019-03-25T13:01:21.921Z,1.70
2019-03-25T13:03:51.865Z,1.30
2019-03-25T13:06:24.553Z,1.40
2019-03-25T13:08:54.443Z,1.67
2019-03-25T13:11:24.364Z,1.30
2019-03-25T13:13:54.422Z,1.50
2019-03-25T13:16:24.289Z,1.60
2019-03-25T13:18:57.180Z,1.73
2019-03-25T13:21:27.162Z,1.20
2019-03-25T13:23:57.108Z,1.23
2019-03-25T13:26:26.958Z,1.40
2019-03-25T13:29:01.846Z,1.73
2019-03-25T13:31:28.492Z,1.33
2019-03-25T13:33:58.382Z,1.90
2019-03-25T13:36:28.329Z,1.83
2019-03-25T13:38:58.211Z,1.73
2019-03-25T13:41:28.083Z,1.60
2019-03-25T13:43:58.079Z,1.70
2019-03-25T13:46:27.933Z,1.93
2019-03-25T13:48:57.827Z,1.97
2019-03-25T13:51:27.799Z,1.90
2019-03-25T13:53:57.676Z,1.50
2019-03-25T13:56:27.632Z,1.80
2019-03-25T13:58:57.527Z,1.60
2019-03-25T14:01:27.529Z,1.93
2019-03-25T14:03:59.552Z,1.43
2019-03-25T14:06:29.545Z,1.80
2019-03-25T14:08:59.524Z,1.37
2019-03-25T14:11:31.540Z,1.67
2019-03-25T14:14:01.358Z,1.50
2019-03-25T14:16:31.240Z,1.27
2019-03-25T14:19:01.157Z,1.20
2019-03-25T14:21:30.980Z,1.20
2019-03-25T14:24:00.814Z,1.20
2019-03-25T14:26:30.792Z,1.13
2019-03-25T14:29:00.647Z,0.83
2019-03-25T14:31:30.562Z,1.10
2019-03-25T14:34:00.489Z,1.23
2019-03-25T14:36:30.447Z,1.50
2019-03-25T14:39:03.724Z,0.90
2019-03-25T14:41:33.582Z,1.20
2019-03-25T14:44:03.448Z,1.10
2019-03-25T14:46:33.332Z,1.00
2019-03-25T14:49:03.247Z,1.40
2019-03-25T14:51:33.113Z,1.20
2019-03-25T14:54:03.081Z,1.07
2019-03-25T14:56:35.739Z,1.37
2019-03-25T14:59:08.630Z,1.80
2019-03-25T15:01:38.447Z,1.60
2019-03-25T15:04:08.372Z,1.73
2019-03-25T15:06:38.238Z,1.30
2019-03-25T15:09:08.513Z,1.93
2019-03-25T15:11:38.360Z,1.70
2019-03-25T15:14:08.207Z,2.47
2019-03-25T15:16:38.106Z,1.73
2019-03-25T15:19:07.996Z,2.53
2019-03-25T15:21:37.848Z,1.40
2019-03-25T15:24:07.906Z,1.13
2019-03-25T15:26:37.807Z,1.00
2019-03-25T15:29:07.680Z,1.00
2019-03-25T15:31:37.609Z,0.93
2019-03-25T15:34:16.666Z,1.57
2019-03-25T15:36:46.596Z,1.50
2019-03-25T15:39:16.511Z,1.20
2019-03-25T15:41:47.336Z,1.23
2019-03-25T15:44:17.356Z,1.47
2019-03-25T15:46:55.265Z,1.43
2019-03-25T15:49:18.830Z,1.23
2019-03-25T15:51:49.787Z,1.30
2019-03-25T15:54:19.656Z,1.70
2019-03-25T15:56:49.491Z,1.50
2019-03-25T15:59:19.584Z,1.67
2019-03-25T16:01:49.543Z,1.50
2019-03-25T16:04:19.383Z,2.10
2019-03-25T16:06:49.254Z,2.00
2019-03-25T16:09:19.190Z,2.00
2019-03-25T16:11:49.148Z,2.00
2019-03-25T16:14:19.062Z,1.63
2019-03-25T16:16:49.369Z,2.20
2019-03-25T16:19:19.323Z,1.93
2019-03-25T16:21:50.035Z,2.30
2019-03-25T16:24:19.987Z,2.13
2019-03-25T16:26:49.995Z,2.07
2019-03-25T16:29:21.439Z,2.83
2019-03-25T16:31:51.679Z,2.20
2019-03-25T16:34:22.162Z,2.00
2019-03-25T16:36:52.847Z,2.13
2019-03-25T16:39:23.786Z,2.17
2019-03-25T16:41:54.552Z,2.80
2019-03-25T16:44:27.709Z,2.53
2019-03-25T16:46:58.437Z,2.27
2019-03-25T16:49:29.212Z,2.50
2019-03-25T16:51:59.844Z,2.13
2019-03-25T16:54:30.517Z,2.40
2019-03-25T16:57:03.046Z,2.73
2019-03-25T16:59:33.966Z,3.07
2019-03-25T17:02:04.603Z,2.40
2019-03-25T17:04:35.021Z,2.40
2019-03-25T17:07:05.486Z,2.23
2019-03-25T17:09:35.851Z,1.93
2019-03-25T17:12:06.291Z,2.37
2019-03-25T17:14:38.181Z,2.00
2019-03-25T17:17:11.484Z,2.20
2019-03-25T17:19:45.125Z,2.40
2019-03-25T17:22:18.631Z,2.53
2019-03-25T17:24:52.190Z,2.43
2019-03-25T17:27:25.322Z,1.97
2019-03-25T17:29:57.685Z,1.50
2019-03-25T17:32:32.051Z,1.70
2019-03-25T17:35:08.802Z,2.20
2019-03-25T17:37:43.751Z,1.80
2019-03-25T17:40:22.723Z,1.80
2019-03-25T17:42:56.974Z,1.63
2019-03-25T17:45:32.275Z,1.93
2019-03-25T17:48:05.573Z,2.13
2019-03-25T17:50:39.707Z,1.80
2019-03-25T17:53:21.324Z,2.57
2019-03-25T17:55:59.645Z,2.00
2019-03-25T17:58:33.935Z,1.90
2019-03-25T18:01:42.638Z,1.77
2019-03-25T18:04:16.492Z,1.53
2019-03-25T18:06:48.975Z,1.77
2019-03-25T18:09:21.223Z,2.00
2019-03-25T18:11:56.139Z,2.20
2019-03-25T18:14:30.502Z,2.00
2019-03-25T18:17:03.575Z,1.97
2019-03-25T18:19:37.628Z,1.97
2019-03-25T18:22:14.098Z,2.13
2019-03-25T18:24:50.555Z,1.97
2019-03-25T18:27:53.979Z,1.90
2019-03-25T18:31:42.898Z,1.97
2019-03-25T18:34:51.814Z,1.90
